createdAt,value
2022-12-04T00:00:28.783Z,989.81
2022-12-04T00:01:30.483Z,989.86
2022-12-04T00:02:32.296Z,989.83
2022-12-04T00:03:34.017Z,989.85
2022-12-04T00:04:35.831Z,989.79
2022-12-04T00:05:37.445Z,989.83
2022-12-04T00:06:39.199Z,989.83
2022-12-04T00:07:41.014Z,989.85
2022-12-04T00:08:42.664Z,989.84
2022-12-04T00:09:44.360Z,989.9
2022-12-04T00:10:46.095Z,989.91
2022-12-04T00:11:47.870Z,989.9
2022-12-04T00:12:49.575Z,989.92
2022-12-04T00:13:51.327Z,989.91
2022-12-04T00:15:23.960Z,989.9
2022-12-04T00:15:54.854Z,989.98
2022-12-04T00:16:56.626Z,989.95
2022-12-04T00:17:58.278Z,989.95
2022-12-04T00:19:00.028Z,989.91
2022-12-04T00:20:01.693Z,989.95
2022-12-04T00:21:03.432Z,989.91
2022-12-04T00:22:05.190Z,989.96
2022-12-04T00:23:06.896Z,989.93
2022-12-04T00:24:08.629Z,989.94
2022-12-04T00:25:10.402Z,989.85
2022-12-04T00:26:12.107Z,989.94
2022-12-04T00:27:13.872Z,989.93
2022-12-04T00:28:15.575Z,989.96
2022-12-04T00:29:17.312Z,989.96
2022-12-04T00:30:19.030Z,989.98
2022-12-04T00:31:20.954Z,990.02
2022-12-04T00:32:22.512Z,989.96
2022-12-04T00:33:24.239Z,990.02
2022-12-04T00:34:26.013Z,990.01
2022-12-04T00:35:27.677Z,989.97
2022-12-04T00:36:29.421Z,989.94
2022-12-04T00:37:31.151Z,989.99
2022-12-04T00:38:32.864Z,989.87
2022-12-04T00:39:34.602Z,989.97
2022-12-04T00:40:36.364Z,989.98
2022-12-04T00:41:38.079Z,989.95
2022-12-04T00:42:39.795Z,990.01
2022-12-04T00:43:41.572Z,989.98
2022-12-04T00:44:43.264Z,990.04
2022-12-04T00:45:45.023Z,990.05
2022-12-04T00:46:46.723Z,989.99
2022-12-04T00:47:48.492Z,990.04
2022-12-04T00:48:50.198Z,989.96
2022-12-04T00:49:51.984Z,989.96
2022-12-04T00:50:53.664Z,989.95
2022-12-04T00:51:55.425Z,989.97
2022-12-04T00:52:57.121Z,989.97
2022-12-04T00:53:58.907Z,989.91
2022-12-04T00:55:00.579Z,989.89
2022-12-04T00:56:02.370Z,989.87
2022-12-04T00:57:04.075Z,989.87
2022-12-04T00:58:05.789Z,989.9
2022-12-04T00:59:07.539Z,989.93
2022-12-04T01:00:09.271Z,989.91
2022-12-04T01:01:11.180Z,989.89
2022-12-04T01:02:12.736Z,989.91
2022-12-04T01:03:14.556Z,989.95
2022-12-04T01:04:16.202Z,989.95
2022-12-04T01:05:17.923Z,990
2022-12-04T01:06:19.685Z,990.01
2022-12-04T01:07:21.414Z,989.97
2022-12-04T01:08:23.161Z,989.91
2022-12-04T01:09:24.864Z,989.9
2022-12-04T01:10:26.588Z,989.9
2022-12-04T01:11:28.360Z,989.82
2022-12-04T01:12:30.062Z,989.82
2022-12-04T01:13:31.792Z,989.79
2022-12-04T01:14:33.555Z,989.73
2022-12-04T01:15:35.313Z,989.72
2022-12-04T01:16:37.116Z,989.75
2022-12-04T01:17:38.792Z,989.74
2022-12-04T01:18:40.498Z,989.74
2022-12-04T01:19:42.188Z,989.66
2022-12-04T01:20:43.931Z,989.69
2022-12-04T01:21:45.664Z,989.65
2022-12-04T01:22:47.402Z,989.67
2022-12-04T01:23:49.121Z,989.72
2022-12-04T01:24:50.889Z,989.67
2022-12-04T01:25:52.632Z,989.64
2022-12-04T01:26:54.339Z,989.63
2022-12-04T01:27:56.061Z,989.57
2022-12-04T01:28:57.839Z,989.53
2022-12-04T01:29:59.537Z,989.49
2022-12-04T01:31:01.306Z,989.58
2022-12-04T01:32:03.115Z,989.54
2022-12-04T01:33:04.766Z,989.62
2022-12-04T01:34:06.481Z,989.57
2022-12-04T01:35:08.185Z,989.56
2022-12-04T01:36:09.926Z,989.55
2022-12-04T01:37:11.656Z,989.61
2022-12-04T01:38:13.406Z,989.58
2022-12-04T01:39:15.164Z,989.61
2022-12-04T01:40:16.885Z,989.65
2022-12-04T01:41:18.608Z,989.56
2022-12-04T01:42:20.379Z,989.52
2022-12-04T01:43:22.106Z,989.47
2022-12-04T01:44:23.800Z,989.43
2022-12-04T01:45:25.609Z,989.5
2022-12-04T01:46:27.398Z,989.52
2022-12-04T01:47:29.030Z,989.52
2022-12-04T01:48:30.773Z,989.55
2022-12-04T01:49:32.462Z,989.57
2022-12-04T01:50:34.195Z,989.65
2022-12-04T01:51:35.933Z,989.64
2022-12-04T01:52:37.702Z,989.68
2022-12-04T01:53:39.383Z,989.7
2022-12-04T01:54:41.129Z,989.67
2022-12-04T01:55:42.895Z,989.76
2022-12-04T01:56:44.587Z,989.78
2022-12-04T01:57:46.337Z,989.85
2022-12-04T01:58:48.059Z,989.88
2022-12-04T01:59:49.844Z,989.91
2022-12-04T02:00:52.107Z,989.89
2022-12-04T02:01:53.455Z,989.9
2022-12-04T02:02:55.033Z,989.88
2022-12-04T02:03:56.770Z,989.89
2022-12-04T02:04:58.485Z,989.89
2022-12-04T02:06:00.231Z,989.86
2022-12-04T02:07:01.944Z,989.9
2022-12-04T02:08:03.754Z,989.91
2022-12-04T02:09:05.399Z,989.93
2022-12-04T02:10:07.139Z,989.85
2022-12-04T02:11:08.855Z,989.88
2022-12-04T02:12:10.597Z,989.9
2022-12-04T02:13:12.373Z,989.94
2022-12-04T02:14:14.063Z,989.88
2022-12-04T02:15:15.828Z,989.91
2022-12-04T02:16:17.621Z,989.85
2022-12-04T02:17:19.275Z,989.79
2022-12-04T02:18:21.032Z,989.85
2022-12-04T02:19:22.762Z,989.79
2022-12-04T02:20:24.473Z,989.81
2022-12-04T02:21:26.206Z,989.83
2022-12-04T02:22:27.931Z,989.83
2022-12-04T02:23:29.699Z,989.85
2022-12-04T02:24:31.452Z,989.86
2022-12-04T02:25:33.130Z,989.85
2022-12-04T02:26:34.867Z,989.84
2022-12-04T02:27:36.632Z,989.87
2022-12-04T02:28:38.343Z,989.84
2022-12-04T02:29:40.063Z,989.83
2022-12-04T02:30:41.850Z,989.81
2022-12-04T02:31:43.525Z,989.81
2022-12-04T02:32:45.296Z,989.83
2022-12-04T02:33:47.039Z,989.77
2022-12-04T02:34:48.767Z,989.83
2022-12-04T02:35:50.502Z,989.8
2022-12-04T02:36:52.182Z,989.79
2022-12-04T02:37:53.952Z,989.82
2022-12-04T02:38:55.715Z,989.84
2022-12-04T02:39:57.836Z,989.92
2022-12-04T02:40:59.127Z,989.98
2022-12-04T02:42:00.864Z,989.93
2022-12-04T02:43:02.608Z,989.91
2022-12-04T02:44:04.331Z,989.89
2022-12-04T02:45:06.088Z,989.87
2022-12-04T02:46:07.851Z,989.91
2022-12-04T02:47:09.526Z,989.88
2022-12-04T02:48:11.309Z,989.9
2022-12-04T02:49:13.025Z,989.85
2022-12-04T02:50:14.731Z,989.82
2022-12-04T02:51:16.464Z,989.77
2022-12-04T02:52:18.231Z,989.71
2022-12-04T02:53:19.928Z,989.72
2022-12-04T02:54:21.675Z,989.69
2022-12-04T02:55:23.439Z,989.72
2022-12-04T02:56:25.158Z,989.73
2022-12-04T02:57:26.910Z,989.71
2022-12-04T02:58:28.605Z,989.75
2022-12-04T02:59:30.365Z,989.69
2022-12-04T03:00:32.065Z,989.73
2022-12-04T03:01:33.903Z,989.71
2022-12-04T03:02:35.698Z,989.71
2022-12-04T03:03:37.288Z,989.68
2022-12-04T03:04:39.029Z,989.67
2022-12-04T03:05:40.756Z,989.68
2022-12-04T03:06:42.499Z,989.62
2022-12-04T03:07:44.327Z,989.69
2022-12-04T03:08:45.921Z,989.64
2022-12-04T03:09:47.663Z,989.7
2022-12-04T03:10:49.393Z,989.76
2022-12-04T03:11:51.117Z,989.64
2022-12-04T03:12:52.855Z,989.64
2022-12-04T03:13:54.593Z,989.7
2022-12-04T03:14:56.321Z,989.72
2022-12-04T03:15:58.067Z,989.66
2022-12-04T03:16:59.873Z,989.69
2022-12-04T03:18:01.522Z,989.7
2022-12-04T03:19:03.258Z,989.73
2022-12-04T03:20:05.027Z,989.72
2022-12-04T03:21:06.725Z,989.71
2022-12-04T03:22:08.498Z,989.66
2022-12-04T03:23:10.225Z,989.6
2022-12-04T03:24:12.013Z,989.65
2022-12-04T03:25:13.661Z,989.62
2022-12-04T03:26:15.398Z,989.59
2022-12-04T03:27:17.172Z,989.55
2022-12-04T03:28:18.900Z,989.56
2022-12-04T03:29:20.649Z,989.54
2022-12-04T03:30:22.354Z,989.55
2022-12-04T03:31:24.169Z,989.53
2022-12-04T03:32:25.824Z,989.6
2022-12-04T03:33:27.545Z,989.54
2022-12-04T03:34:29.282Z,989.54
2022-12-04T03:35:31.019Z,989.49
2022-12-04T03:36:32.765Z,989.49
2022-12-04T03:37:34.467Z,989.52
2022-12-04T03:38:36.223Z,989.48
2022-12-04T03:39:37.950Z,989.48
2022-12-04T03:40:39.683Z,989.47
2022-12-04T03:41:45.170Z,989.48
2022-12-04T03:42:43.138Z,989.48
2022-12-04T03:43:44.883Z,989.53
2022-12-04T03:44:46.606Z,989.51
2022-12-04T03:45:48.473Z,989.43
2022-12-04T03:46:50.091Z,989.53
2022-12-04T03:47:51.837Z,989.49
2022-12-04T03:48:53.574Z,989.49
2022-12-04T03:49:55.709Z,989.52
2022-12-04T03:50:57.020Z,989.5
2022-12-04T03:51:58.714Z,989.44
2022-12-04T03:53:00.498Z,989.48
2022-12-04T03:54:02.219Z,989.48
2022-12-04T03:55:03.932Z,989.49
2022-12-04T03:56:05.652Z,989.51
2022-12-04T03:57:07.399Z,989.51
2022-12-04T03:58:09.124Z,989.52
2022-12-04T03:59:10.852Z,989.5
2022-12-04T04:00:12.629Z,989.52
2022-12-04T04:01:14.450Z,989.54
2022-12-04T04:02:16.170Z,989.54
2022-12-04T04:03:17.811Z,989.55
2022-12-04T04:04:19.553Z,989.54
2022-12-04T04:05:21.316Z,989.5
2022-12-04T04:06:23.042Z,989.53
2022-12-04T04:07:24.797Z,989.54
2022-12-04T04:08:26.657Z,989.51
2022-12-04T04:09:28.233Z,989.52
2022-12-04T04:10:29.994Z,989.52
2022-12-04T04:11:31.698Z,989.56
2022-12-04T04:12:33.405Z,989.58
2022-12-04T04:13:35.153Z,989.58
2022-12-04T04:14:36.862Z,989.6
2022-12-04T04:15:38.655Z,989.58
2022-12-04T04:16:40.357Z,989.53
2022-12-04T04:17:42.069Z,989.58
2022-12-04T04:18:43.850Z,989.58
2022-12-04T04:19:45.537Z,989.58
2022-12-04T04:20:47.275Z,989.58
2022-12-04T04:21:48.998Z,989.56
2022-12-04T04:22:55.765Z,989.56
2022-12-04T04:23:52.494Z,989.43
2022-12-04T04:24:54.199Z,989.5
2022-12-04T04:25:55.923Z,989.52
2022-12-04T04:26:57.655Z,989.5
2022-12-04T04:27:59.423Z,989.51
2022-12-04T04:29:01.159Z,989.52
2022-12-04T04:30:02.878Z,989.5
2022-12-04T04:31:04.629Z,989.5
2022-12-04T04:32:06.347Z,989.48
2022-12-04T04:33:08.090Z,989.45
2022-12-04T04:34:09.806Z,989.47
2022-12-04T04:35:11.570Z,989.47
2022-12-04T04:36:13.275Z,989.47
2022-12-04T04:37:15.002Z,989.51
2022-12-04T04:38:16.762Z,989.5
2022-12-04T04:39:18.463Z,989.56
2022-12-04T04:40:20.233Z,989.5
2022-12-04T04:41:21.933Z,989.5
2022-12-04T04:42:23.662Z,989.44
2022-12-04T04:43:25.393Z,989.46
2022-12-04T04:44:27.145Z,989.47
2022-12-04T04:45:28.926Z,989.47
2022-12-04T04:46:30.764Z,989.49
2022-12-04T04:47:32.354Z,989.49
2022-12-04T04:48:34.112Z,989.55
2022-12-04T04:49:35.802Z,989.4
2022-12-04T04:50:37.540Z,989.46
2022-12-04T04:51:39.274Z,989.49
2022-12-04T04:52:41.003Z,989.45
2022-12-04T04:53:42.748Z,989.45
2022-12-04T04:54:44.464Z,989.45
2022-12-04T04:55:46.192Z,989.44
2022-12-04T04:56:47.941Z,989.47
2022-12-04T04:57:49.663Z,989.49
2022-12-04T04:58:51.438Z,989.51
2022-12-04T04:59:53.783Z,989.49
2022-12-04T05:00:54.902Z,989.43
2022-12-04T05:01:56.685Z,989.35
2022-12-04T05:02:58.451Z,989.4
2022-12-04T05:04:00.143Z,989.37
2022-12-04T05:05:01.791Z,989.42
2022-12-04T05:06:03.593Z,989.29
2022-12-04T05:07:05.289Z,989.39
2022-12-04T05:08:07.130Z,989.37
2022-12-04T05:09:08.798Z,989.36
2022-12-04T05:10:10.463Z,989.34
2022-12-04T05:11:12.220Z,989.4
2022-12-04T05:12:13.939Z,989.36
2022-12-04T05:13:15.683Z,989.34
2022-12-04T05:14:17.421Z,989.38
2022-12-04T05:15:19.172Z,989.38
2022-12-04T05:16:21.001Z,989.37
2022-12-04T05:17:22.603Z,989.37
2022-12-04T05:18:24.339Z,989.41
2022-12-04T05:19:26.094Z,989.43
2022-12-04T05:20:27.798Z,989.4
2022-12-04T05:21:29.546Z,989.44
2022-12-04T05:22:31.390Z,989.42
2022-12-04T05:23:32.993Z,989.4
2022-12-04T05:24:34.749Z,989.36
2022-12-04T05:25:36.556Z,989.34
2022-12-04T05:26:38.245Z,989.35
2022-12-04T05:27:39.972Z,989.39
2022-12-04T05:28:41.735Z,989.42
2022-12-04T05:29:43.405Z,989.48
2022-12-04T05:30:45.182Z,989.48
2022-12-04T05:31:46.990Z,989.45
2022-12-04T05:32:48.606Z,989.47
2022-12-04T05:33:50.336Z,989.48
2022-12-04T05:34:52.085Z,989.54
2022-12-04T05:35:53.812Z,989.51
2022-12-04T05:36:55.578Z,989.49
2022-12-04T05:37:57.284Z,989.52
2022-12-04T05:38:59.023Z,989.53
2022-12-04T05:40:00.752Z,989.54
2022-12-04T05:41:02.499Z,989.51
2022-12-04T05:42:04.215Z,989.58
2022-12-04T05:43:05.959Z,989.64
2022-12-04T05:44:07.681Z,989.63
2022-12-04T05:45:09.423Z,989.62
2022-12-04T05:46:11.227Z,989.54
2022-12-04T05:47:12.870Z,989.67
2022-12-04T05:48:14.603Z,989.68
2022-12-04T05:49:16.388Z,989.66
2022-12-04T05:50:18.093Z,989.69
2022-12-04T05:51:19.854Z,989.67
2022-12-04T05:52:21.554Z,989.64
2022-12-04T05:53:23.302Z,989.68
2022-12-04T05:54:25.025Z,989.68
2022-12-04T05:55:26.787Z,989.64
2022-12-04T05:56:28.488Z,989.63
2022-12-04T05:57:30.313Z,989.54
2022-12-04T05:58:31.948Z,989.62
2022-12-04T05:59:33.677Z,989.61
2022-12-04T06:00:35.406Z,989.62
2022-12-04T06:01:37.215Z,989.66
2022-12-04T06:02:39.096Z,989.62
2022-12-04T06:03:40.615Z,989.66
2022-12-04T06:04:42.339Z,989.68
2022-12-04T06:05:44.123Z,989.57
2022-12-04T06:06:45.858Z,989.66
2022-12-04T06:07:47.676Z,989.67
2022-12-04T06:08:49.286Z,989.66
2022-12-04T06:09:51.041Z,989.6
2022-12-04T06:10:52.757Z,989.55
2022-12-04T06:11:54.486Z,989.66
2022-12-04T06:12:56.229Z,989.65
2022-12-04T06:13:57.995Z,989.63
2022-12-04T06:14:59.729Z,989.64
2022-12-04T06:16:01.503Z,989.65
2022-12-04T06:17:03.153Z,989.6
2022-12-04T06:18:04.881Z,989.61
2022-12-04T06:19:06.634Z,989.6
2022-12-04T06:20:11.727Z,989.58
2022-12-04T06:21:10.108Z,989.55
2022-12-04T06:22:11.830Z,989.6
2022-12-04T06:23:13.552Z,989.53
2022-12-04T06:24:15.323Z,989.55
2022-12-04T06:25:17.014Z,989.58
2022-12-04T06:26:18.746Z,989.55
2022-12-04T06:27:28.680Z,989.61
2022-12-04T06:28:22.228Z,989.61
2022-12-04T06:29:23.964Z,989.65
2022-12-04T06:30:25.696Z,989.61
2022-12-04T06:31:27.482Z,989.6
2022-12-04T06:32:29.187Z,989.63
2022-12-04T06:33:30.960Z,989.59
2022-12-04T06:34:32.667Z,989.6
2022-12-04T06:35:34.350Z,989.6
2022-12-04T06:36:36.147Z,989.67
2022-12-04T06:37:37.818Z,989.63
2022-12-04T06:38:39.561Z,989.61
2022-12-04T06:39:41.291Z,989.66
2022-12-04T06:40:43.059Z,989.61
2022-12-04T06:41:44.751Z,989.61
2022-12-04T06:42:46.568Z,989.62
2022-12-04T06:43:48.272Z,989.64
2022-12-04T06:44:50.027Z,989.62
2022-12-04T06:45:51.738Z,989.57
2022-12-04T06:46:54.921Z,989.63
2022-12-04T06:47:55.167Z,989.6
2022-12-04T06:48:56.909Z,989.62
2022-12-04T06:49:58.996Z,989.62
2022-12-04T06:51:00.359Z,989.64
2022-12-04T06:52:02.118Z,989.64
2022-12-04T06:53:08.319Z,989.58
2022-12-04T06:54:05.563Z,989.61
2022-12-04T06:55:07.339Z,989.59
2022-12-04T06:56:09.062Z,989.57
2022-12-04T06:57:10.796Z,989.56
2022-12-04T06:58:12.514Z,989.5
2022-12-04T06:59:14.228Z,989.54
2022-12-04T07:00:16.003Z,989.57
2022-12-04T07:01:17.833Z,989.56
2022-12-04T07:02:19.505Z,989.56
2022-12-04T07:03:21.165Z,989.54
2022-12-04T07:04:22.900Z,989.56
2022-12-04T07:05:24.677Z,989.52
2022-12-04T07:06:26.405Z,989.56
2022-12-04T07:07:28.229Z,989.54
2022-12-04T07:08:29.894Z,989.56
2022-12-04T07:09:31.584Z,989.58
2022-12-04T07:10:33.302Z,989.55
2022-12-04T07:11:35.050Z,989.49
2022-12-04T07:12:36.781Z,989.51
2022-12-04T07:13:38.533Z,989.52
2022-12-04T07:14:40.254Z,989.54
2022-12-04T07:15:42.023Z,989.51
2022-12-04T07:16:43.780Z,989.5
2022-12-04T07:17:45.430Z,989.5
2022-12-04T07:18:47.178Z,989.49
2022-12-04T07:19:48.931Z,989.5
2022-12-04T07:20:50.656Z,989.49
2022-12-04T07:21:52.397Z,989.48
2022-12-04T07:22:54.110Z,989.4
2022-12-04T07:23:55.866Z,989.46
2022-12-04T07:24:57.593Z,989.42
2022-12-04T07:25:59.303Z,989.35
2022-12-04T07:27:01.047Z,989.41
2022-12-04T07:28:02.785Z,989.46
2022-12-04T07:29:04.512Z,989.42
2022-12-04T07:30:08.891Z,989.41
2022-12-04T07:31:07.951Z,989.41
2022-12-04T07:32:09.754Z,989.41
2022-12-04T07:33:11.431Z,989.34
2022-12-04T07:34:13.170Z,989.37
2022-12-04T07:35:14.931Z,989.35
2022-12-04T07:36:16.671Z,989.3
2022-12-04T07:37:18.376Z,989.38
2022-12-04T07:38:20.124Z,989.36
2022-12-04T07:39:21.892Z,989.41
2022-12-04T07:40:23.575Z,989.38
2022-12-04T07:41:25.309Z,989.44
2022-12-04T07:42:27.043Z,989.47
2022-12-04T07:43:28.817Z,989.5
2022-12-04T07:44:30.498Z,989.48
2022-12-04T07:45:32.370Z,989.52
2022-12-04T07:46:34.118Z,989.43
2022-12-04T07:47:35.715Z,989.42
2022-12-04T07:48:37.468Z,989.42
2022-12-04T07:49:39.181Z,989.41
2022-12-04T07:50:40.958Z,989.46
2022-12-04T07:51:45.817Z,989.47
2022-12-04T07:52:47.577Z,989.46
2022-12-04T07:53:49.274Z,989.56
2022-12-04T07:54:51.048Z,989.49
2022-12-04T07:55:52.779Z,989.49
2022-12-04T07:56:54.483Z,989.51
2022-12-04T07:57:56.233Z,989.49
2022-12-04T07:58:57.983Z,989.59
2022-12-04T07:59:59.683Z,989.63
2022-12-04T08:01:01.517Z,989.58
2022-12-04T08:02:03.164Z,989.61
2022-12-04T08:03:04.907Z,989.62
2022-12-04T08:04:06.784Z,989.62
2022-12-04T08:05:08.389Z,989.64
2022-12-04T08:06:10.113Z,989.58
2022-12-04T08:07:11.846Z,989.57
2022-12-04T08:08:13.632Z,989.63
2022-12-04T08:09:15.295Z,989.65
2022-12-04T08:10:17.016Z,989.71
2022-12-04T08:11:18.802Z,989.72
2022-12-04T08:12:20.496Z,989.67
2022-12-04T08:13:22.214Z,989.73
2022-12-04T08:14:23.963Z,989.7
2022-12-04T08:15:25.699Z,989.68
2022-12-04T08:16:27.516Z,989.71
2022-12-04T08:17:29.303Z,989.75
2022-12-04T08:18:30.890Z,989.76
2022-12-04T08:19:32.633Z,989.8
2022-12-04T08:20:34.370Z,989.79
2022-12-04T08:21:36.090Z,989.82
2022-12-04T08:22:37.839Z,989.75
2022-12-04T08:23:39.570Z,989.79
2022-12-04T08:24:41.311Z,989.73
2022-12-04T08:25:43.042Z,989.73
2022-12-04T08:26:44.818Z,989.73
2022-12-04T08:27:47.614Z,989.63
2022-12-04T08:28:48.233Z,989.72
2022-12-04T08:29:49.992Z,989.7
2022-12-04T08:30:51.775Z,989.73
2022-12-04T08:31:53.458Z,989.76
2022-12-04T08:32:55.175Z,989.69
2022-12-04T08:33:56.963Z,989.66
2022-12-04T08:34:58.640Z,989.59
2022-12-04T08:36:00.405Z,989.57
2022-12-04T08:37:02.127Z,989.51
2022-12-04T08:38:03.891Z,989.5
2022-12-04T08:39:05.569Z,989.46
2022-12-04T08:40:07.313Z,989.43
2022-12-04T08:41:09.074Z,989.47
2022-12-04T08:42:10.799Z,989.46
2022-12-04T08:43:12.548Z,989.55
2022-12-04T08:44:14.270Z,989.59
2022-12-04T08:45:15.976Z,989.53
2022-12-04T08:46:17.841Z,989.61
2022-12-04T08:47:19.477Z,989.56
2022-12-04T08:48:21.171Z,989.56
2022-12-04T08:49:22.903Z,989.5
2022-12-04T08:50:24.638Z,989.51
2022-12-04T08:51:26.390Z,989.5
2022-12-04T08:52:28.160Z,989.47
2022-12-04T08:53:29.829Z,989.51
2022-12-04T08:54:35.938Z,989.48
2022-12-04T08:55:33.299Z,989.48
2022-12-04T08:56:35.046Z,989.46
2022-12-04T09:02:36.324Z,989.5
2022-12-04T09:03:38.061Z,989.48
2022-12-04T09:04:39.904Z,989.4
2022-12-04T09:05:41.514Z,989.47
2022-12-04T09:06:43.275Z,989.48
2022-12-04T09:07:45.092Z,989.47
2022-12-04T09:08:47.994Z,989.45
2022-12-04T09:09:48.693Z,989.48
2022-12-04T09:10:50.190Z,989.44
2022-12-04T09:11:51.937Z,989.47
2022-12-04T09:12:53.658Z,989.41
2022-12-04T09:13:56.423Z,989.43
2022-12-04T09:14:57.119Z,989.35
2022-12-04T09:15:59.002Z,989.35
2022-12-04T09:17:00.568Z,989.37
2022-12-04T09:18:02.303Z,989.37
2022-12-04T09:19:04.034Z,989.45
2022-12-04T09:20:06.021Z,989.49
2022-12-04T09:21:08.872Z,989.55
2022-12-04T09:22:09.283Z,989.56
2022-12-04T09:23:11.041Z,989.61
2022-12-04T09:24:12.700Z,989.59
2022-12-04T09:25:14.426Z,989.57
2022-12-04T09:26:16.220Z,989.52
2022-12-04T09:27:17.913Z,989.51
2022-12-04T09:28:20.740Z,989.46
2022-12-04T09:29:25.981Z,989.46
2022-12-04T09:30:28.322Z,989.51
2022-12-04T09:31:30.176Z,989.53
2022-12-04T09:32:31.812Z,989.53
2022-12-04T09:33:33.471Z,989.56
2022-12-04T09:34:35.224Z,989.56
2022-12-04T09:35:38.024Z,989.55
2022-12-04T09:36:38.643Z,989.5
2022-12-04T09:37:40.376Z,989.49
2022-12-04T09:38:42.099Z,989.46
2022-12-04T09:39:43.917Z,989.39
2022-12-04T09:40:45.603Z,989.36
2022-12-04T09:41:47.342Z,989.33
2022-12-04T09:42:49.104Z,989.32
2022-12-04T09:43:50.852Z,989.33
2022-12-04T09:44:52.556Z,989.3
2022-12-04T09:45:54.356Z,989.41
2022-12-04T09:46:56.066Z,989.42
2022-12-04T09:47:57.744Z,989.47
2022-12-04T09:48:59.487Z,989.43
2022-12-04T09:50:01.187Z,989.41
2022-12-04T09:51:02.935Z,989.39
2022-12-04T09:52:04.668Z,989.31
2022-12-04T09:53:06.388Z,989.24
2022-12-04T09:54:09.761Z,989.36
2022-12-04T09:55:09.929Z,989.38
2022-12-04T09:56:11.657Z,989.32
2022-12-04T09:57:13.341Z,989.33
2022-12-04T09:58:15.073Z,989.38
2022-12-04T09:59:16.794Z,989.35
2022-12-04T10:00:18.528Z,989.32
2022-12-04T10:01:20.261Z,989.36
2022-12-04T10:02:22.085Z,989.32
2022-12-04T10:03:23.931Z,989.35
2022-12-04T10:04:25.546Z,989.29
2022-12-04T10:05:28.663Z,989.29
2022-12-04T10:06:28.929Z,989.3
2022-12-04T10:07:30.724Z,989.32
2022-12-04T10:08:32.397Z,989.38
2022-12-04T10:09:35.518Z,989.35
2022-12-04T10:10:35.881Z,989.39
2022-12-04T10:11:37.557Z,989.32
2022-12-04T10:12:39.341Z,989.28
2022-12-04T10:13:41.031Z,989.28
2022-12-04T10:14:42.722Z,989.27
2022-12-04T10:15:44.549Z,989.2
2022-12-04T10:16:46.188Z,989.25
2022-12-04T10:17:47.909Z,989.27
2022-12-04T10:18:49.639Z,989.27
2022-12-04T10:19:51.406Z,989.27
2022-12-04T10:20:53.110Z,989.23
2022-12-04T10:21:54.852Z,989.31
2022-12-04T10:22:56.592Z,989.33
2022-12-04T10:23:58.312Z,989.31
2022-12-04T10:25:00.044Z,989.31
2022-12-04T10:26:01.788Z,989.25
2022-12-04T10:27:03.508Z,989.3
2022-12-04T10:28:05.246Z,989.3
2022-12-04T10:29:06.988Z,989.31
2022-12-04T10:30:08.720Z,989.33
2022-12-04T10:31:10.482Z,989.26
2022-12-04T10:32:12.189Z,989.3
2022-12-04T10:33:13.928Z,989.32
2022-12-04T10:34:15.643Z,989.28
2022-12-04T10:35:17.376Z,989.25
2022-12-04T10:36:19.113Z,989.26
2022-12-04T10:37:20.834Z,989.2
2022-12-04T10:38:22.649Z,989.13
2022-12-04T10:39:24.433Z,989.15
2022-12-04T10:40:26.048Z,989.11
2022-12-04T10:41:27.853Z,989.07
2022-12-04T10:42:29.546Z,989.05
2022-12-04T10:43:31.271Z,989.04
2022-12-04T10:44:33.053Z,989.1
2022-12-04T10:45:34.755Z,989.1
2022-12-04T10:46:37.971Z,989.05
2022-12-04T10:47:38.213Z,989.05
2022-12-04T10:48:39.958Z,989.04
2022-12-04T10:49:41.706Z,989.06
2022-12-04T10:50:43.444Z,989.03
2022-12-04T10:51:45.183Z,989.08
2022-12-04T10:52:46.935Z,989.12
2022-12-04T10:53:48.620Z,989.15
2022-12-04T10:54:54.541Z,989.1
2022-12-04T10:55:57.186Z,989.11
2022-12-04T10:56:58.923Z,989.11
2022-12-04T10:58:00.699Z,989.08
2022-12-04T10:59:02.447Z,989.04
2022-12-04T11:00:04.140Z,989
2022-12-04T11:01:05.861Z,988.89
2022-12-04T11:02:07.667Z,988.91
2022-12-04T11:03:09.417Z,988.94
2022-12-04T11:04:11.088Z,988.87
2022-12-04T11:05:12.790Z,988.87
2022-12-04T11:06:15.550Z,988.82
2022-12-04T11:07:16.262Z,988.78
2022-12-04T11:08:19.926Z,988.76
2022-12-04T11:09:19.722Z,988.7
2022-12-04T11:10:21.479Z,988.72
2022-12-04T11:11:23.218Z,988.69
2022-12-04T11:12:24.929Z,988.72
2022-12-04T11:13:26.818Z,988.7
2022-12-04T11:14:28.390Z,988.77
2022-12-04T11:15:30.127Z,988.7
2022-12-04T11:16:31.925Z,988.66
2022-12-04T11:17:33.593Z,988.67
2022-12-04T11:18:35.320Z,988.67
2022-12-04T11:19:37.069Z,988.63
2022-12-04T11:20:42.836Z,988.66
2022-12-04T11:21:40.525Z,988.65
2022-12-04T11:22:42.251Z,988.66
2022-12-04T11:23:44.014Z,988.66
2022-12-04T11:24:45.722Z,988.57
2022-12-04T11:25:47.450Z,988.62
2022-12-04T11:26:49.181Z,988.65
2022-12-04T11:27:50.921Z,988.58
2022-12-04T11:28:52.658Z,988.6
2022-12-04T11:29:54.887Z,988.57
2022-12-04T11:30:56.176Z,988.61
2022-12-04T11:32:00.363Z,988.57
2022-12-04T11:32:59.580Z,988.51
2022-12-04T11:34:01.333Z,988.52
2022-12-04T11:35:03.044Z,988.56
2022-12-04T11:36:04.785Z,988.6
2022-12-04T11:37:06.520Z,988.58
2022-12-04T11:38:08.316Z,988.54
2022-12-04T11:39:10.025Z,988.59
2022-12-04T11:40:11.748Z,988.61
2022-12-04T11:41:13.458Z,988.6
2022-12-04T11:42:15.217Z,988.61
2022-12-04T11:43:16.923Z,988.58
2022-12-04T11:44:18.680Z,988.65
2022-12-04T11:45:20.392Z,988.65
2022-12-04T11:46:22.191Z,988.68
2022-12-04T11:47:23.857Z,988.74
2022-12-04T11:48:25.647Z,988.67
2022-12-04T11:49:27.401Z,988.72
2022-12-04T11:50:29.065Z,988.72
2022-12-04T11:51:30.795Z,988.71
2022-12-04T11:52:32.524Z,988.61
2022-12-04T11:53:34.268Z,988.62
2022-12-04T11:54:36.013Z,988.56
2022-12-04T11:55:37.739Z,988.56
2022-12-04T11:56:39.498Z,988.54
2022-12-04T11:57:41.199Z,988.57
2022-12-04T11:58:42.933Z,988.58
2022-12-04T11:59:44.708Z,988.59
2022-12-04T12:00:46.419Z,988.59
2022-12-04T12:01:50.061Z,988.6
2022-12-04T12:02:50.112Z,988.67
2022-12-04T12:03:51.629Z,988.68
2022-12-04T12:04:53.348Z,988.72
2022-12-04T12:05:55.085Z,988.69
2022-12-04T12:06:56.807Z,988.74
2022-12-04T12:08:02.511Z,988.69
2022-12-04T12:09:00.275Z,988.67
2022-12-04T12:10:02.000Z,988.71
2022-12-04T12:11:03.720Z,988.72
2022-12-04T12:12:05.461Z,988.7
2022-12-04T12:13:07.207Z,988.77
2022-12-04T12:14:08.972Z,988.77
2022-12-04T12:15:10.679Z,988.74
2022-12-04T12:16:12.452Z,988.76
2022-12-04T12:17:14.141Z,988.75
2022-12-04T12:18:19.141Z,988.74
2022-12-04T12:19:17.602Z,988.68
2022-12-04T12:20:19.327Z,988.75
2022-12-04T12:21:21.071Z,988.74
2022-12-04T12:22:22.804Z,988.79
2022-12-04T12:23:24.528Z,988.78
2022-12-04T12:24:26.273Z,988.76
2022-12-04T12:25:28.007Z,988.78
2022-12-04T12:26:29.724Z,988.73
2022-12-04T12:27:31.509Z,988.69
2022-12-04T12:28:33.185Z,988.69
2022-12-04T12:29:34.936Z,988.62
2022-12-04T12:30:36.670Z,988.6
2022-12-04T12:31:38.463Z,988.59
2022-12-04T12:32:40.215Z,988.63
2022-12-04T12:33:41.855Z,988.62
2022-12-04T12:34:43.622Z,988.64
2022-12-04T12:35:45.333Z,988.68
2022-12-04T12:36:47.068Z,988.68
2022-12-04T12:37:48.802Z,988.65
2022-12-04T12:38:50.521Z,988.63
2022-12-04T12:39:52.269Z,988.58
2022-12-04T12:40:53.987Z,988.58
2022-12-04T12:41:55.722Z,988.62
2022-12-04T12:42:58.708Z,988.62
2022-12-04T12:43:59.194Z,988.59
2022-12-04T12:45:00.930Z,988.59
2022-12-04T12:46:02.761Z,988.62
2022-12-04T12:47:04.418Z,988.53
2022-12-04T12:48:06.126Z,988.6
2022-12-04T12:49:07.919Z,988.63
2022-12-04T12:50:09.599Z,988.64
2022-12-04T12:51:29.676Z,988.63
2022-12-04T12:52:13.059Z,988.63
2022-12-04T12:53:14.826Z,988.61
2022-12-04T12:54:16.526Z,988.62
2022-12-04T12:55:18.279Z,988.65
2022-12-04T12:56:19.986Z,988.66
2022-12-04T12:57:21.775Z,988.69
2022-12-04T12:58:24.654Z,988.61